sensor_id;sensor_type;location;lat;lon;timestamp;P1;durP1;ratioP1;P2;durP2;ratioP2
3207;SDS011;1616;52.394;9.756;2023-11-18T00:00:18;11.73;;;9.33;;
3207;SDS011;1616;52.394;9.756;2023-11-18T00:02:45;11.40;;;8.67;;
3207;SDS011;1616;52.394;9.756;2023-11-18T00:05:11;13.63;;;10.10;;
3207;SDS011;1616;52.394;9.756;2023-11-18T00:07:37;14.50;;;11.10;;
3207;SDS011;1616;52.394;9.756;2023-11-18T00:10:03;20.43;;;12.47;;
3207;SDS011;1616;52.394;9.756;2023-11-18T00:12:30;18.17;;;13.60;;
3207;SDS011;1616;52.394;9.756;2023-11-18T00:14:55;25.90;;;17.40;;
3207;SDS011;1616;52.394;9.756;2023-11-18T00:17:21;34.43;;;16.90;;
3207;SDS011;1616;52.394;9.756;2023-11-18T00:19:47;28.10;;;16.57;;
3207;SDS011;1616;52.394;9.756;2023-11-18T00:22:13;25.47;;;16.23;;
3207;SDS011;1616;52.394;9.756;2023-11-18T00:24:39;23.50;;;15.70;;
3207;SDS011;1616;52.394;9.756;2023-11-18T00:27:04;33.17;;;15.83;;
3207;SDS011;1616;52.394;9.756;2023-11-18T00:29:34;29.33;;;18.77;;
3207;SDS011;1616;52.394;9.756;2023-11-18T00:32:03;25.20;;;16.53;;
3207;SDS011;1616;52.394;9.756;2023-11-18T00:34:30;39.37;;;18.37;;
3207;SDS011;1616;52.394;9.756;2023-11-18T00:36:55;27.50;;;17.33;;
3207;SDS011;1616;52.394;9.756;2023-11-18T00:39:25;28.07;;;18.07;;
3207;SDS011;1616;52.394;9.756;2023-11-18T00:41:52;27.67;;;18.20;;
3207;SDS011;1616;52.394;9.756;2023-11-18T00:44:18;25.23;;;15.07;;
3207;SDS011;1616;52.394;9.756;2023-11-18T00:46:44;25.57;;;17.30;;
3207;SDS011;1616;52.394;9.756;2023-11-18T00:49:10;27.57;;;15.80;;
3207;SDS011;1616;52.394;9.756;2023-11-18T00:51:39;26.20;;;16.17;;
3207;SDS011;1616;52.394;9.756;2023-11-18T00:54:07;27.13;;;16.63;;
3207;SDS011;1616;52.394;9.756;2023-11-18T00:56:33;30.60;;;17.70;;
3207;SDS011;1616;52.394;9.756;2023-11-18T00:58:59;28.10;;;17.77;;
3207;SDS011;1616;52.394;9.756;2023-11-18T01:01:27;29.17;;;16.33;;
3207;SDS011;1616;52.394;9.756;2023-11-18T01:03:53;26.50;;;16.63;;
3207;SDS011;1616;52.394;9.756;2023-11-18T01:06:18;24.87;;;16.23;;
3207;SDS011;1616;52.394;9.756;2023-11-18T01:08:45;24.20;;;16.37;;
3207;SDS011;1616;52.394;9.756;2023-11-18T01:11:10;25.47;;;17.07;;
3207;SDS011;1616;52.394;9.756;2023-11-18T01:13:40;22.67;;;16.20;;
3207;SDS011;1616;52.394;9.756;2023-11-18T01:16:07;36.20;;;17.83;;
3207;SDS011;1616;52.394;9.756;2023-11-18T01:18:34;31.33;;;17.00;;
3207;SDS011;1616;52.394;9.756;2023-11-18T01:20:59;26.50;;;17.33;;
3207;SDS011;1616;52.394;9.756;2023-11-18T01:23:25;27.70;;;15.87;;
3207;SDS011;1616;52.394;9.756;2023-11-18T01:25:51;34.40;;;16.43;;
3207;SDS011;1616;52.394;9.756;2023-11-18T01:28:17;37.07;;;17.67;;
3207;SDS011;1616;52.394;9.756;2023-11-18T01:30:44;26.33;;;16.30;;
3207;SDS011;1616;52.394;9.756;2023-11-18T01:33:10;30.87;;;17.40;;
3207;SDS011;1616;52.394;9.756;2023-11-18T01:35:36;33.20;;;17.03;;
3207;SDS011;1616;52.394;9.756;2023-11-18T01:38:02;32.20;;;16.50;;
3207;SDS011;1616;52.394;9.756;2023-11-18T01:40:27;22.90;;;15.97;;
3207;SDS011;1616;52.394;9.756;2023-11-18T01:42:56;29.17;;;16.23;;
3207;SDS011;1616;52.394;9.756;2023-11-18T01:45:22;27.60;;;15.70;;
3207;SDS011;1616;52.394;9.756;2023-11-18T01:47:47;31.03;;;16.80;;
3207;SDS011;1616;52.394;9.756;2023-11-18T01:50:14;27.40;;;16.67;;
3207;SDS011;1616;52.394;9.756;2023-11-18T01:52:42;28.90;;;17.77;;
3207;SDS011;1616;52.394;9.756;2023-11-18T01:55:09;26.80;;;17.20;;
3207;SDS011;1616;52.394;9.756;2023-11-18T01:57:35;48.57;;;22.07;;
3207;SDS011;1616;52.394;9.756;2023-11-18T02:00:02;41.43;;;23.07;;
3207;SDS011;1616;52.394;9.756;2023-11-18T02:02:32;49.20;;;26.57;;
3207;SDS011;1616;52.394;9.756;2023-11-18T02:04:58;42.93;;;23.80;;
3207;SDS011;1616;52.394;9.756;2023-11-18T02:07:27;41.80;;;24.23;;
3207;SDS011;1616;52.394;9.756;2023-11-18T02:09:54;49.30;;;25.60;;
3207;SDS011;1616;52.394;9.756;2023-11-18T02:12:25;50.03;;;26.10;;
3207;SDS011;1616;52.394;9.756;2023-11-18T02:14:57;51.47;;;28.00;;
3207;SDS011;1616;52.394;9.756;2023-11-18T02:17:23;60.73;;;28.97;;
3207;SDS011;1616;52.394;9.756;2023-11-18T02:19:53;56.30;;;31.40;;
3207;SDS011;1616;52.394;9.756;2023-11-18T02:22:21;51.57;;;28.47;;
3207;SDS011;1616;52.394;9.756;2023-11-18T02:24:47;54.73;;;29.47;;
3207;SDS011;1616;52.394;9.756;2023-11-18T02:27:13;57.43;;;31.57;;
3207;SDS011;1616;52.394;9.756;2023-11-18T02:29:40;60.77;;;29.90;;
3207;SDS011;1616;52.394;9.756;2023-11-18T02:37:46;60.77;;;28.70;;
3207;SDS011;1616;52.394;9.756;2023-11-18T02:40:21;51.30;;;30.00;;
3207;SDS011;1616;52.394;9.756;2023-11-18T02:42:55;53.90;;;29.80;;
3207;SDS011;1616;52.394;9.756;2023-11-18T02:45:24;51.93;;;29.10;;
3207;SDS011;1616;52.394;9.756;2023-11-18T02:47:50;48.93;;;28.33;;
3207;SDS011;1616;52.394;9.756;2023-11-18T02:50:16;53.70;;;28.93;;
3207;SDS011;1616;52.394;9.756;2023-11-18T02:52:44;57.07;;;30.40;;
3207;SDS011;1616;52.394;9.756;2023-11-18T02:55:10;59.77;;;32.20;;
3207;SDS011;1616;52.394;9.756;2023-11-18T02:57:36;56.40;;;29.63;;
3207;SDS011;1616;52.394;9.756;2023-11-18T03:00:06;59.90;;;31.30;;
3207;SDS011;1616;52.394;9.756;2023-11-18T03:02:37;61.90;;;31.70;;
3207;SDS011;1616;52.394;9.756;2023-11-18T03:05:05;54.20;;;29.50;;
3207;SDS011;1616;52.394;9.756;2023-11-18T03:07:32;61.03;;;31.87;;
3207;SDS011;1616;52.394;9.756;2023-11-18T03:09:58;58.77;;;31.63;;
3207;SDS011;1616;52.394;9.756;2023-11-18T03:12:25;62.30;;;32.23;;
3207;SDS011;1616;52.394;9.756;2023-11-18T03:14:54;63.80;;;33.40;;
3207;SDS011;1616;52.394;9.756;2023-11-18T03:17:20;60.50;;;29.63;;
3207;SDS011;1616;52.394;9.756;2023-11-18T03:19:45;67.00;;;32.17;;
3207;SDS011;1616;52.394;9.756;2023-11-18T03:22:11;59.50;;;31.07;;
3207;SDS011;1616;52.394;9.756;2023-11-18T03:24:38;58.50;;;31.20;;
3207;SDS011;1616;52.394;9.756;2023-11-18T03:27:04;57.40;;;30.70;;
3207;SDS011;1616;52.394;9.756;2023-11-18T03:29:30;58.33;;;31.93;;
3207;SDS011;1616;52.394;9.756;2023-11-18T03:31:55;59.43;;;31.43;;
3207;SDS011;1616;52.394;9.756;2023-11-18T03:34:22;65.47;;;33.50;;
3207;SDS011;1616;52.394;9.756;2023-11-18T03:36:48;55.47;;;30.73;;
3207;SDS011;1616;52.394;9.756;2023-11-18T03:39:14;55.90;;;31.70;;
3207;SDS011;1616;52.394;9.756;2023-11-18T03:41:42;65.37;;;34.40;;
3207;SDS011;1616;52.394;9.756;2023-11-18T03:44:13;59.17;;;31.30;;
3207;SDS011;1616;52.394;9.756;2023-11-18T03:46:39;60.30;;;28.83;;
3207;SDS011;1616;52.394;9.756;2023-11-18T03:49:06;62.10;;;32.40;;
3207;SDS011;1616;52.394;9.756;2023-11-18T03:51:31;56.00;;;29.23;;
3207;SDS011;1616;52.394;9.756;2023-11-18T03:53:57;55.43;;;30.07;;
3207;SDS011;1616;52.394;9.756;2023-11-18T03:56:23;60.37;;;31.37;;
3207;SDS011;1616;52.394;9.756;2023-11-18T03:58:48;64.40;;;32.80;;
3207;SDS011;1616;52.394;9.756;2023-11-18T04:01:24;65.73;;;32.67;;
3207;SDS011;1616;52.394;9.756;2023-11-18T04:03:53;66.90;;;32.97;;
3207;SDS011;1616;52.394;9.756;2023-11-18T04:06:22;60.20;;;31.97;;
3207;SDS011;1616;52.394;9.756;2023-11-18T04:08:49;78.93;;;33.27;;
3207;SDS011;1616;52.394;9.756;2023-11-18T04:11:15;66.13;;;34.27;;
3207;SDS011;1616;52.394;9.756;2023-11-18T04:13:42;75.80;;;35.13;;
3207;SDS011;1616;52.394;9.756;2023-11-18T04:16:13;60.63;;;32.37;;
3207;SDS011;1616;52.394;9.756;2023-11-18T04:18:40;59.00;;;32.13;;
3207;SDS011;1616;52.394;9.756;2023-11-18T04:21:07;58.37;;;32.03;;
3207;SDS011;1616;52.394;9.756;2023-11-18T04:23:36;65.10;;;34.23;;
3207;SDS011;1616;52.394;9.756;2023-11-18T04:26:03;75.43;;;33.00;;
3207;SDS011;1616;52.394;9.756;2023-11-18T04:28:30;75.70;;;36.10;;
3207;SDS011;1616;52.394;9.756;2023-11-18T04:30:56;74.57;;;35.57;;
3207;SDS011;1616;52.394;9.756;2023-11-18T04:33:21;74.43;;;35.60;;
3207;SDS011;1616;52.394;9.756;2023-11-18T04:35:49;75.70;;;38.40;;
3207;SDS011;1616;52.394;9.756;2023-11-18T04:38:16;67.83;;;34.90;;
3207;SDS011;1616;52.394;9.756;2023-11-18T04:40:43;69.27;;;34.30;;
3207;SDS011;1616;52.394;9.756;2023-11-18T04:43:11;70.93;;;36.07;;
3207;SDS011;1616;52.394;9.756;2023-11-18T04:45:37;71.20;;;33.23;;
3207;SDS011;1616;52.394;9.756;2023-11-18T04:48:03;73.20;;;33.43;;
3207;SDS011;1616;52.394;9.756;2023-11-18T04:50:30;63.80;;;33.30;;
3207;SDS011;1616;52.394;9.756;2023-11-18T04:52:57;74.73;;;34.57;;
3207;SDS011;1616;52.394;9.756;2023-11-18T04:55:22;61.40;;;31.53;;
3207;SDS011;1616;52.394;9.756;2023-11-18T04:57:48;66.23;;;32.03;;
3207;SDS011;1616;52.394;9.756;2023-11-18T05:00:13;68.87;;;33.80;;
3207;SDS011;1616;52.394;9.756;2023-11-18T05:02:42;67.87;;;33.80;;
3207;SDS011;1616;52.394;9.756;2023-11-18T05:05:08;61.80;;;32.90;;
3207;SDS011;1616;52.394;9.756;2023-11-18T05:07:34;70.27;;;33.87;;
3207;SDS011;1616;52.394;9.756;2023-11-18T05:10:01;71.40;;;33.17;;
3207;SDS011;1616;52.394;9.756;2023-11-18T05:12:28;71.77;;;34.07;;
3207;SDS011;1616;52.394;9.756;2023-11-18T05:14:55;66.20;;;32.37;;
3207;SDS011;1616;52.394;9.756;2023-11-18T05:17:22;74.67;;;32.97;;
3207;SDS011;1616;52.394;9.756;2023-11-18T05:19:48;66.67;;;32.90;;
3207;SDS011;1616;52.394;9.756;2023-11-18T05:22:14;72.73;;;33.47;;
3207;SDS011;1616;52.394;9.756;2023-11-18T05:24:40;65.37;;;31.20;;
3207;SDS011;1616;52.394;9.756;2023-11-18T05:27:06;70.17;;;34.10;;
3207;SDS011;1616;52.394;9.756;2023-11-18T05:29:32;74.60;;;34.27;;
3207;SDS011;1616;52.394;9.756;2023-11-18T05:31:59;59.70;;;30.70;;
3207;SDS011;1616;52.394;9.756;2023-11-18T05:34:24;70.73;;;34.50;;
3207;SDS011;1616;52.394;9.756;2023-11-18T05:36:50;73.57;;;34.40;;
3207;SDS011;1616;52.394;9.756;2023-11-18T05:39:22;73.03;;;33.97;;
3207;SDS011;1616;52.394;9.756;2023-11-18T05:41:53;63.80;;;33.03;;
3207;SDS011;1616;52.394;9.756;2023-11-18T05:44:21;66.73;;;33.20;;
3207;SDS011;1616;52.394;9.756;2023-11-18T05:46:56;68.90;;;34.10;;
3207;SDS011;1616;52.394;9.756;2023-11-18T05:49:22;71.37;;;34.90;;
3207;SDS011;1616;52.394;9.756;2023-11-18T05:51:49;67.33;;;32.80;;
3207;SDS011;1616;52.394;9.756;2023-11-18T05:54:15;75.63;;;35.23;;
3207;SDS011;1616;52.394;9.756;2023-11-18T05:56:41;83.50;;;35.57;;
3207;SDS011;1616;52.394;9.756;2023-11-18T05:59:06;75.00;;;34.60;;
3207;SDS011;1616;52.394;9.756;2023-11-18T06:01:33;67.60;;;31.60;;
3207;SDS011;1616;52.394;9.756;2023-11-18T06:03:59;70.27;;;34.10;;
3207;SDS011;1616;52.394;9.756;2023-11-18T06:06:26;71.40;;;33.40;;
3207;SDS011;1616;52.394;9.756;2023-11-18T06:08:52;76.50;;;34.77;;
3207;SDS011;1616;52.394;9.756;2023-11-18T06:11:18;82.70;;;34.40;;
3207;SDS011;1616;52.394;9.756;2023-11-18T06:13:45;65.50;;;32.03;;
3207;SDS011;1616;52.394;9.756;2023-11-18T06:16:16;83.63;;;35.90;;
3207;SDS011;1616;52.394;9.756;2023-11-18T06:18:42;78.00;;;35.40;;
3207;SDS011;1616;52.394;9.756;2023-11-18T06:21:12;76.17;;;33.90;;
3207;SDS011;1616;52.394;9.756;2023-11-18T06:23:39;71.37;;;33.43;;
3207;SDS011;1616;52.394;9.756;2023-11-18T06:26:05;96.00;;;37.80;;
3207;SDS011;1616;52.394;9.756;2023-11-18T06:28:31;70.40;;;34.07;;
3207;SDS011;1616;52.394;9.756;2023-11-18T06:30:59;83.23;;;35.40;;
3207;SDS011;1616;52.394;9.756;2023-11-18T06:33:24;82.57;;;36.53;;
3207;SDS011;1616;52.394;9.756;2023-11-18T06:35:55;86.07;;;35.30;;
3207;SDS011;1616;52.394;9.756;2023-11-18T06:38:21;86.10;;;35.33;;
3207;SDS011;1616;52.394;9.756;2023-11-18T06:40:47;93.97;;;38.17;;
3207;SDS011;1616;52.394;9.756;2023-11-18T06:43:18;81.27;;;34.80;;
3207;SDS011;1616;52.394;9.756;2023-11-18T06:45:45;86.77;;;36.67;;
3207;SDS011;1616;52.394;9.756;2023-11-18T06:48:14;101.20;;;36.93;;
3207;SDS011;1616;52.394;9.756;2023-11-18T06:50:39;89.50;;;35.60;;
3207;SDS011;1616;52.394;9.756;2023-11-18T06:53:09;75.10;;;33.87;;
3207;SDS011;1616;52.394;9.756;2023-11-18T06:55:36;92.87;;;36.70;;
3207;SDS011;1616;52.394;9.756;2023-11-18T06:58:01;94.27;;;37.03;;
3207;SDS011;1616;52.394;9.756;2023-11-18T07:00:27;90.23;;;35.70;;
3207;SDS011;1616;52.394;9.756;2023-11-18T07:02:54;100.43;;;40.10;;
3207;SDS011;1616;52.394;9.756;2023-11-18T07:05:20;97.63;;;37.97;;
3207;SDS011;1616;52.394;9.756;2023-11-18T07:07:49;106.03;;;39.00;;
3207;SDS011;1616;52.394;9.756;2023-11-18T07:10:15;100.43;;;36.63;;
3207;SDS011;1616;52.394;9.756;2023-11-18T07:12:46;96.27;;;36.90;;
3207;SDS011;1616;52.394;9.756;2023-11-18T07:15:13;97.10;;;38.40;;
3207;SDS011;1616;52.394;9.756;2023-11-18T07:17:40;113.40;;;41.70;;
3207;SDS011;1616;52.394;9.756;2023-11-18T07:20:06;99.77;;;38.20;;
3207;SDS011;1616;52.394;9.756;2023-11-18T07:22:32;97.80;;;40.93;;
3207;SDS011;1616;52.394;9.756;2023-11-18T07:24:57;103.80;;;38.97;;
3207;SDS011;1616;52.394;9.756;2023-11-18T07:27:23;104.23;;;39.87;;
3207;SDS011;1616;52.394;9.756;2023-11-18T07:29:48;99.70;;;39.47;;
3207;SDS011;1616;52.394;9.756;2023-11-18T07:32:14;94.07;;;40.07;;
3207;SDS011;1616;52.394;9.756;2023-11-18T07:34:39;87.07;;;38.70;;
3207;SDS011;1616;52.394;9.756;2023-11-18T07:37:06;96.33;;;36.17;;
3207;SDS011;1616;52.394;9.756;2023-11-18T07:39:33;98.67;;;41.30;;
3207;SDS011;1616;52.394;9.756;2023-11-18T07:42:13;87.50;;;35.27;;
3207;SDS011;1616;52.394;9.756;2023-11-18T07:44:43;84.17;;;35.67;;
3207;SDS011;1616;52.394;9.756;2023-11-18T07:47:09;96.23;;;37.20;;
3207;SDS011;1616;52.394;9.756;2023-11-18T07:49:36;79.90;;;34.00;;
3207;SDS011;1616;52.394;9.756;2023-11-18T07:52:02;85.60;;;34.10;;
3207;SDS011;1616;52.394;9.756;2023-11-18T07:54:28;82.50;;;34.17;;
3207;SDS011;1616;52.394;9.756;2023-11-18T07:56:53;90.07;;;35.90;;
3207;SDS011;1616;52.394;9.756;2023-11-18T07:59:20;84.50;;;35.90;;
3207;SDS011;1616;52.394;9.756;2023-11-18T08:01:45;83.37;;;34.27;;
3207;SDS011;1616;52.394;9.756;2023-11-18T08:04:14;94.63;;;36.10;;
3207;SDS011;1616;52.394;9.756;2023-11-18T08:06:40;88.30;;;37.10;;
3207;SDS011;1616;52.394;9.756;2023-11-18T08:09:08;86.07;;;34.93;;
3207;SDS011;1616;52.394;9.756;2023-11-18T08:11:38;68.90;;;31.83;;
3207;SDS011;1616;52.394;9.756;2023-11-18T08:14:06;74.57;;;33.40;;
3207;SDS011;1616;52.394;9.756;2023-11-18T08:16:35;72.47;;;32.30;;
3207;SDS011;1616;52.394;9.756;2023-11-18T08:19:01;74.77;;;31.70;;
3207;SDS011;1616;52.394;9.756;2023-11-18T08:21:33;62.60;;;29.63;;
3207;SDS011;1616;52.394;9.756;2023-11-18T08:24:00;68.70;;;32.50;;
3207;SDS011;1616;52.394;9.756;2023-11-18T08:26:26;61.27;;;30.40;;
3207;SDS011;1616;52.394;9.756;2023-11-18T08:28:52;59.33;;;28.73;;
3207;SDS011;1616;52.394;9.756;2023-11-18T08:31:18;67.90;;;31.80;;
3207;SDS011;1616;52.394;9.756;2023-11-18T08:33:44;58.40;;;27.77;;
3207;SDS011;1616;52.394;9.756;2023-11-18T08:36:11;66.57;;;31.27;;
3207;SDS011;1616;52.394;9.756;2023-11-18T08:38:37;79.30;;;30.30;;
3207;SDS011;1616;52.394;9.756;2023-11-18T08:41:04;67.50;;;29.67;;
3207;SDS011;1616;52.394;9.756;2023-11-18T08:43:34;57.97;;;25.87;;
3207;SDS011;1616;52.394;9.756;2023-11-18T08:46:01;56.97;;;26.40;;
3207;SDS011;1616;52.394;9.756;2023-11-18T08:48:27;63.57;;;29.03;;
3207;SDS011;1616;52.394;9.756;2023-11-18T08:50:53;63.43;;;27.70;;
3207;SDS011;1616;52.394;9.756;2023-11-18T08:53:19;78.17;;;28.50;;
3207;SDS011;1616;52.394;9.756;2023-11-18T08:55:51;62.63;;;28.23;;
3207;SDS011;1616;52.394;9.756;2023-11-18T08:58:19;54.17;;;26.50;;
3207;SDS011;1616;52.394;9.756;2023-11-18T09:00:47;54.50;;;27.00;;
3207;SDS011;1616;52.394;9.756;2023-11-18T09:03:19;65.60;;;27.00;;
3207;SDS011;1616;52.394;9.756;2023-11-18T09:06:04;69.20;;;27.43;;
3207;SDS011;1616;52.394;9.756;2023-11-18T09:08:43;67.23;;;28.03;;
3207;SDS011;1616;52.394;9.756;2023-11-18T09:11:11;66.07;;;28.00;;
3207;SDS011;1616;52.394;9.756;2023-11-18T09:13:42;62.77;;;27.67;;
3207;SDS011;1616;52.394;9.756;2023-11-18T09:16:10;61.23;;;26.63;;
3207;SDS011;1616;52.394;9.756;2023-11-18T09:18:40;59.10;;;27.87;;
3207;SDS011;1616;52.394;9.756;2023-11-18T09:21:11;58.27;;;25.50;;
3207;SDS011;1616;52.394;9.756;2023-11-18T09:23:40;50.93;;;24.90;;
3207;SDS011;1616;52.394;9.756;2023-11-18T09:26:07;68.23;;;26.93;;
3207;SDS011;1616;52.394;9.756;2023-11-18T09:28:34;53.37;;;26.77;;
3207;SDS011;1616;52.394;9.756;2023-11-18T09:31:00;56.73;;;26.97;;
3207;SDS011;1616;52.394;9.756;2023-11-18T09:33:28;55.23;;;25.60;;
3207;SDS011;1616;52.394;9.756;2023-11-18T09:35:59;54.60;;;24.50;;
3207;SDS011;1616;52.394;9.756;2023-11-18T09:38:28;63.67;;;27.73;;
3207;SDS011;1616;52.394;9.756;2023-11-18T09:40:55;56.43;;;25.23;;
3207;SDS011;1616;52.394;9.756;2023-11-18T09:43:23;52.37;;;26.23;;
3207;SDS011;1616;52.394;9.756;2023-11-18T09:45:56;55.70;;;27.67;;
3207;SDS011;1616;52.394;9.756;2023-11-18T09:48:27;50.33;;;24.93;;
3207;SDS011;1616;52.394;9.756;2023-11-18T09:50:53;54.57;;;26.20;;
3207;SDS011;1616;52.394;9.756;2023-11-18T09:53:22;45.37;;;24.13;;
3207;SDS011;1616;52.394;9.756;2023-11-18T09:55:55;52.50;;;27.00;;
3207;SDS011;1616;52.394;9.756;2023-11-18T09:58:37;47.37;;;22.63;;
3207;SDS011;1616;52.394;9.756;2023-11-18T10:01:09;46.40;;;24.50;;
3207;SDS011;1616;52.394;9.756;2023-11-18T10:03:39;49.43;;;23.77;;
3207;SDS011;1616;52.394;9.756;2023-11-18T10:06:08;43.70;;;21.90;;
3207;SDS011;1616;52.394;9.756;2023-11-18T10:08:34;48.53;;;22.73;;
3207;SDS011;1616;52.394;9.756;2023-11-18T10:11:04;36.07;;;20.27;;
3207;SDS011;1616;52.394;9.756;2023-11-18T10:13:34;38.97;;;20.07;;
3207;SDS011;1616;52.394;9.756;2023-11-18T10:16:08;40.33;;;20.07;;
3207;SDS011;1616;52.394;9.756;2023-11-18T10:18:34;26.70;;;18.50;;
3207;SDS011;1616;52.394;9.756;2023-11-18T10:21:02;28.40;;;16.23;;
3207;SDS011;1616;52.394;9.756;2023-11-18T10:23:36;25.70;;;16.40;;
3207;SDS011;1616;52.394;9.756;2023-11-18T10:26:02;23.40;;;15.80;;
3207;SDS011;1616;52.394;9.756;2023-11-18T10:28:33;20.43;;;14.00;;
3207;SDS011;1616;52.394;9.756;2023-11-18T10:31:02;17.27;;;12.70;;
3207;SDS011;1616;52.394;9.756;2023-11-18T10:33:34;24.17;;;14.70;;
3207;SDS011;1616;52.394;9.756;2023-11-18T10:36:03;12.73;;;11.23;;
3207;SDS011;1616;52.394;9.756;2023-11-18T10:38:48;15.90;;;10.97;;
3207;SDS011;1616;52.394;9.756;2023-11-18T10:41:18;18.93;;;11.77;;
3207;SDS011;1616;52.394;9.756;2023-11-18T10:43:47;17.97;;;11.93;;
3207;SDS011;1616;52.394;9.756;2023-11-18T10:46:15;12.60;;;9.57;;
3207;SDS011;1616;52.394;9.756;2023-11-18T10:48:48;15.00;;;10.80;;
3207;SDS011;1616;52.394;9.756;2023-11-18T10:51:18;18.10;;;10.80;;
3207;SDS011;1616;52.394;9.756;2023-11-18T10:53:48;15.83;;;10.53;;
3207;SDS011;1616;52.394;9.756;2023-11-18T10:56:24;16.50;;;9.20;;
3207;SDS011;1616;52.394;9.756;2023-11-18T10:58:57;13.90;;;9.80;;
3207;SDS011;1616;52.394;9.756;2023-11-18T11:01:33;16.60;;;9.93;;
3207;SDS011;1616;52.394;9.756;2023-11-18T11:04:04;15.20;;;9.23;;
3207;SDS011;1616;52.394;9.756;2023-11-18T11:06:31;11.30;;;8.20;;
3207;SDS011;1616;52.394;9.756;2023-11-18T11:08:58;16.57;;;9.27;;
3207;SDS011;1616;52.394;9.756;2023-11-18T11:11:25;19.53;;;8.20;;
3207;SDS011;1616;52.394;9.756;2023-11-18T11:13:56;10.60;;;7.47;;
3207;SDS011;1616;52.394;9.756;2023-11-18T11:16:28;13.87;;;9.23;;
3207;SDS011;1616;52.394;9.756;2023-11-18T11:19:02;12.57;;;7.60;;
3207;SDS011;1616;52.394;9.756;2023-11-18T11:21:37;10.70;;;7.10;;
3207;SDS011;1616;52.394;9.756;2023-11-18T11:24:26;10.20;;;7.07;;
3207;SDS011;1616;52.394;9.756;2023-11-18T11:29:56;10.77;;;6.70;;
3207;SDS011;1616;52.394;9.756;2023-11-18T11:32:25;7.30;;;6.47;;
3207;SDS011;1616;52.394;9.756;2023-11-18T11:35:06;7.70;;;6.27;;
3207;SDS011;1616;52.394;9.756;2023-11-18T11:37:44;6.77;;;5.30;;
3207;SDS011;1616;52.394;9.756;2023-11-18T11:40:10;8.67;;;5.80;;
3207;SDS011;1616;52.394;9.756;2023-11-18T11:42:40;5.23;;;4.77;;
3207;SDS011;1616;52.394;9.756;2023-11-18T11:45:07;5.47;;;5.07;;
3207;SDS011;1616;52.394;9.756;2023-11-18T11:47:48;6.27;;;5.80;;
3207;SDS011;1616;52.394;9.756;2023-11-18T11:50:20;5.37;;;4.73;;
3207;SDS011;1616;52.394;9.756;2023-11-18T11:53:02;6.20;;;5.47;;
3207;SDS011;1616;52.394;9.756;2023-11-18T11:55:49;6.90;;;4.43;;
3207;SDS011;1616;52.394;9.756;2023-11-18T11:58:26;3.90;;;3.63;;
3207;SDS011;1616;52.394;9.756;2023-11-18T12:00:52;7.00;;;4.57;;
3207;SDS011;1616;52.394;9.756;2023-11-18T12:03:21;5.43;;;4.73;;
3207;SDS011;1616;52.394;9.756;2023-11-18T12:05:49;5.33;;;4.37;;
3207;SDS011;1616;52.394;9.756;2023-11-18T12:08:21;4.70;;;3.90;;
3207;SDS011;1616;52.394;9.756;2023-11-18T12:10:54;9.77;;;4.50;;
3207;SDS011;1616;52.394;9.756;2023-11-18T12:13:23;5.07;;;4.53;;
3207;SDS011;1616;52.394;9.756;2023-11-18T12:15:52;3.70;;;3.47;;
3207;SDS011;1616;52.394;9.756;2023-11-18T12:18:30;4.73;;;4.33;;
3207;SDS011;1616;52.394;9.756;2023-11-18T12:20:59;4.53;;;3.90;;
3207;SDS011;1616;52.394;9.756;2023-11-18T12:23:30;5.10;;;4.50;;
3207;SDS011;1616;52.394;9.756;2023-11-18T12:25:59;6.17;;;5.00;;
3207;SDS011;1616;52.394;9.756;2023-11-18T12:28:28;5.27;;;4.80;;
3207;SDS011;1616;52.394;9.756;2023-11-18T12:30:59;6.30;;;5.70;;
3207;SDS011;1616;52.394;9.756;2023-11-18T12:34:15;7.47;;;6.77;;
3207;SDS011;1616;52.394;9.756;2023-11-18T12:36:44;7.27;;;6.77;;
3207;SDS011;1616;52.394;9.756;2023-11-18T12:42:20;6.50;;;5.90;;
3207;SDS011;1616;52.394;9.756;2023-11-18T12:48:16;11.00;;;6.63;;
3207;SDS011;1616;52.394;9.756;2023-11-18T12:50:51;7.17;;;6.07;;
3207;SDS011;1616;52.394;9.756;2023-11-18T12:53:20;11.23;;;6.00;;
3207;SDS011;1616;52.394;9.756;2023-11-18T12:55:49;6.60;;;5.90;;
3207;SDS011;1616;52.394;9.756;2023-11-18T12:58:17;7.90;;;5.50;;
3207;SDS011;1616;52.394;9.756;2023-11-18T13:00:43;6.60;;;6.00;;
3207;SDS011;1616;52.394;9.756;2023-11-18T13:03:10;5.03;;;4.63;;
3207;SDS011;1616;52.394;9.756;2023-11-18T13:05:37;8.40;;;5.70;;
3207;SDS011;1616;52.394;9.756;2023-11-18T13:08:03;6.30;;;5.70;;
3207;SDS011;1616;52.394;9.756;2023-11-18T13:10:30;7.73;;;6.50;;
3207;SDS011;1616;52.394;9.756;2023-11-18T13:12:56;6.10;;;5.50;;
3207;SDS011;1616;52.394;9.756;2023-11-18T13:15:24;7.50;;;5.97;;
3207;SDS011;1616;52.394;9.756;2023-11-18T13:18:05;6.60;;;5.67;;
3207;SDS011;1616;52.394;9.756;2023-11-18T13:20:34;8.50;;;5.30;;
3207;SDS011;1616;52.394;9.756;2023-11-18T13:23:01;6.70;;;6.10;;
3207;SDS011;1616;52.394;9.756;2023-11-18T13:25:36;8.43;;;7.07;;
3207;SDS011;1616;52.394;9.756;2023-11-18T13:28:04;7.93;;;6.30;;
3207;SDS011;1616;52.394;9.756;2023-11-18T13:30:30;7.53;;;6.00;;
3207;SDS011;1616;52.394;9.756;2023-11-18T13:32:57;7.67;;;7.00;;
3207;SDS011;1616;52.394;9.756;2023-11-18T13:35:23;8.07;;;7.27;;
3207;SDS011;1616;52.394;9.756;2023-11-18T13:37:49;7.83;;;6.43;;
3207;SDS011;1616;52.394;9.756;2023-11-18T13:40:16;10.43;;;6.40;;
3207;SDS011;1616;52.394;9.756;2023-11-18T13:42:45;12.27;;;6.97;;
3207;SDS011;1616;52.394;9.756;2023-11-18T13:45:12;5.87;;;5.33;;
3207;SDS011;1616;52.394;9.756;2023-11-18T13:47:41;7.53;;;6.40;;
3207;SDS011;1616;52.394;9.756;2023-11-18T13:50:20;5.47;;;4.63;;
3207;SDS011;1616;52.394;9.756;2023-11-18T13:52:46;6.53;;;5.80;;
3207;SDS011;1616;52.394;9.756;2023-11-18T13:55:14;10.03;;;5.93;;
3207;SDS011;1616;52.394;9.756;2023-11-18T13:57:53;12.10;;;6.40;;
3207;SDS011;1616;52.394;9.756;2023-11-18T14:00:26;8.17;;;6.10;;
3207;SDS011;1616;52.394;9.756;2023-11-18T14:02:56;5.43;;;4.93;;
3207;SDS011;1616;52.394;9.756;2023-11-18T14:05:23;9.03;;;5.60;;
3207;SDS011;1616;52.394;9.756;2023-11-18T14:07:52;7.10;;;5.20;;
3207;SDS011;1616;52.394;9.756;2023-11-18T14:10:24;7.20;;;5.67;;
3207;SDS011;1616;52.394;9.756;2023-11-18T14:13:00;5.23;;;4.40;;
3207;SDS011;1616;52.394;9.756;2023-11-18T14:15:28;8.53;;;5.70;;
3207;SDS011;1616;52.394;9.756;2023-11-18T14:17:55;7.10;;;5.67;;
3207;SDS011;1616;52.394;9.756;2023-11-18T14:20:20;10.00;;;5.13;;
3207;SDS011;1616;52.394;9.756;2023-11-18T14:22:48;5.70;;;5.30;;
3207;SDS011;1616;52.394;9.756;2023-11-18T14:25:14;5.10;;;4.57;;
3207;SDS011;1616;52.394;9.756;2023-11-18T14:27:40;7.03;;;4.63;;
3207;SDS011;1616;52.394;9.756;2023-11-18T14:30:06;6.03;;;5.43;;
3207;SDS011;1616;52.394;9.756;2023-11-18T14:32:34;5.33;;;4.83;;
3207;SDS011;1616;52.394;9.756;2023-11-18T14:35:00;9.73;;;5.83;;
3207;SDS011;1616;52.394;9.756;2023-11-18T14:37:26;9.07;;;6.00;;
3207;SDS011;1616;52.394;9.756;2023-11-18T14:39:53;5.93;;;5.43;;
3207;SDS011;1616;52.394;9.756;2023-11-18T14:42:20;5.77;;;5.27;;
3207;SDS011;1616;52.394;9.756;2023-11-18T14:44:49;5.17;;;4.87;;
3207;SDS011;1616;52.394;9.756;2023-11-18T14:47:15;7.27;;;5.17;;
3207;SDS011;1616;52.394;9.756;2023-11-18T14:49:42;7.83;;;6.27;;
3207;SDS011;1616;52.394;9.756;2023-11-18T14:52:07;6.10;;;4.93;;
3207;SDS011;1616;52.394;9.756;2023-11-18T14:54:33;16.83;;;6.57;;
3207;SDS011;1616;52.394;9.756;2023-11-18T14:57:01;5.73;;;4.80;;
3207;SDS011;1616;52.394;9.756;2023-11-18T14:59:28;4.80;;;4.50;;
3207;SDS011;1616;52.394;9.756;2023-11-18T15:01:55;6.97;;;5.50;;
3207;SDS011;1616;52.394;9.756;2023-11-18T15:04:23;5.43;;;4.93;;
3207;SDS011;1616;52.394;9.756;2023-11-18T15:06:49;5.90;;;5.30;;
3207;SDS011;1616;52.394;9.756;2023-11-18T15:09:18;5.33;;;4.90;;
3207;SDS011;1616;52.394;9.756;2023-11-18T15:11:46;7.00;;;5.90;;
3207;SDS011;1616;52.394;9.756;2023-11-18T15:14:15;7.63;;;5.03;;
3207;SDS011;1616;52.394;9.756;2023-11-18T15:16:41;8.90;;;6.43;;